sensor_id;sensor_type;location;lat;lon;timestamp;P1;durP1;ratioP1;P2;durP2;ratioP2
10094;SDS011;5086;50.830;7.102;2023-06-22T00:00:47;8.30;;;5.60;;
10094;SDS011;5086;50.830;7.102;2023-06-22T00:03:14;7.40;;;5.23;;
10094;SDS011;5086;50.830;7.102;2023-06-22T00:05:41;10.23;;;5.37;;
10094;SDS011;5086;50.830;7.102;2023-06-22T00:08:08;8.20;;;5.43;;
10094;SDS011;5086;50.830;7.102;2023-06-22T00:10:35;12.30;;;5.50;;
10094;SDS011;5086;50.830;7.102;2023-06-22T00:13:03;7.30;;;5.00;;
10094;SDS011;5086;50.830;7.102;2023-06-22T00:15:30;8.87;;;5.50;;
10094;SDS011;5086;50.830;7.102;2023-06-22T00:17:57;9.03;;;5.50;;
10094;SDS011;5086;50.830;7.102;2023-06-22T00:20:24;6.67;;;5.00;;
10094;SDS011;5086;50.830;7.102;2023-06-22T00:22:52;13.43;;;6.40;;
10094;SDS011;5086;50.830;7.102;2023-06-22T00:25:20;8.50;;;4.73;;
10094;SDS011;5086;50.830;7.102;2023-06-22T00:27:46;7.30;;;5.33;;
10094;SDS011;5086;50.830;7.102;2023-06-22T00:30:15;9.40;;;6.27;;
10094;SDS011;5086;50.830;7.102;2023-06-22T00:32:42;8.37;;;5.40;;
10094;SDS011;5086;50.830;7.102;2023-06-22T00:35:09;11.27;;;6.07;;
10094;SDS011;5086;50.830;7.102;2023-06-22T00:37:36;9.40;;;5.47;;
10094;SDS011;5086;50.830;7.102;2023-06-22T00:40:03;6.77;;;5.23;;
10094;SDS011;5086;50.830;7.102;2023-06-22T00:42:32;10.33;;;5.77;;
10094;SDS011;5086;50.830;7.102;2023-06-22T00:44:59;8.80;;;5.77;;
10094;SDS011;5086;50.830;7.102;2023-06-22T00:47:27;8.53;;;5.53;;
10094;SDS011;5086;50.830;7.102;2023-06-22T00:49:54;11.30;;;5.43;;
10094;SDS011;5086;50.830;7.102;2023-06-22T00:52:21;10.53;;;6.30;;
10094;SDS011;5086;50.830;7.102;2023-06-22T00:54:52;7.37;;;5.50;;
10094;SDS011;5086;50.830;7.102;2023-06-22T00:57:19;7.93;;;5.60;;
10094;SDS011;5086;50.830;7.102;2023-06-22T00:59:47;13.30;;;5.63;;
10094;SDS011;5086;50.830;7.102;2023-06-22T01:02:14;7.60;;;5.97;;
10094;SDS011;5086;50.830;7.102;2023-06-22T01:04:43;8.83;;;5.50;;
10094;SDS011;5086;50.830;7.102;2023-06-22T01:07:10;8.87;;;5.93;;
10094;SDS011;5086;50.830;7.102;2023-06-22T01:09:45;7.57;;;5.53;;
10094;SDS011;5086;50.830;7.102;2023-06-22T01:12:17;8.83;;;6.07;;
10094;SDS011;5086;50.830;7.102;2023-06-22T01:14:47;8.40;;;5.80;;
10094;SDS011;5086;50.830;7.102;2023-06-22T01:17:20;7.80;;;5.80;;
10094;SDS011;5086;50.830;7.102;2023-06-22T01:19:49;8.83;;;6.30;;
10094;SDS011;5086;50.830;7.102;2023-06-22T01:22:21;8.53;;;5.57;;
10094;SDS011;5086;50.830;7.102;2023-06-22T01:24:54;9.43;;;6.20;;
10094;SDS011;5086;50.830;7.102;2023-06-22T01:27:28;10.40;;;6.23;;
10094;SDS011;5086;50.830;7.102;2023-06-22T01:30:04;10.20;;;6.20;;
10094;SDS011;5086;50.830;7.102;2023-06-22T01:32:33;10.10;;;5.60;;
10094;SDS011;5086;50.830;7.102;2023-06-22T01:35:03;9.77;;;6.30;;
10094;SDS011;5086;50.830;7.102;2023-06-22T01:37:32;10.07;;;6.30;;
10094;SDS011;5086;50.830;7.102;2023-06-22T01:40:00;8.33;;;5.97;;
10094;SDS011;5086;50.830;7.102;2023-06-22T01:42:29;8.30;;;6.10;;
10094;SDS011;5086;50.830;7.102;2023-06-22T01:44:57;8.77;;;5.63;;
10094;SDS011;5086;50.830;7.102;2023-06-22T01:47:26;10.07;;;6.20;;
10094;SDS011;5086;50.830;7.102;2023-06-22T01:49:53;9.17;;;5.93;;
10094;SDS011;5086;50.830;7.102;2023-06-22T01:52:21;11.83;;;5.97;;
10094;SDS011;5086;50.830;7.102;2023-06-22T01:54:47;9.63;;;6.47;;
10094;SDS011;5086;50.830;7.102;2023-06-22T01:57:14;8.30;;;6.17;;
10094;SDS011;5086;50.830;7.102;2023-06-22T01:59:43;10.30;;;6.70;;
10094;SDS011;5086;50.830;7.102;2023-06-22T02:02:15;11.60;;;6.53;;
10094;SDS011;5086;50.830;7.102;2023-06-22T02:04:48;8.43;;;6.23;;
10094;SDS011;5086;50.830;7.102;2023-06-22T02:07:18;9.40;;;6.10;;
10094;SDS011;5086;50.830;7.102;2023-06-22T02:09:46;8.77;;;6.00;;
10094;SDS011;5086;50.830;7.102;2023-06-22T02:12:18;11.90;;;6.20;;
10094;SDS011;5086;50.830;7.102;2023-06-22T02:14:52;10.27;;;6.60;;
10094;SDS011;5086;50.830;7.102;2023-06-22T02:17:19;11.43;;;6.83;;
10094;SDS011;5086;50.830;7.102;2023-06-22T02:19:48;9.30;;;6.20;;
10094;SDS011;5086;50.830;7.102;2023-06-22T02:22:15;10.30;;;6.43;;
10094;SDS011;5086;50.830;7.102;2023-06-22T02:24:41;12.80;;;5.93;;
10094;SDS011;5086;50.830;7.102;2023-06-22T02:27:08;9.70;;;6.43;;
10094;SDS011;5086;50.830;7.102;2023-06-22T02:29:35;9.03;;;6.60;;
10094;SDS011;5086;50.830;7.102;2023-06-22T02:32:02;8.17;;;6.30;;
10094;SDS011;5086;50.830;7.102;2023-06-22T02:34:30;9.03;;;5.90;;
10094;SDS011;5086;50.830;7.102;2023-06-22T02:37:00;9.07;;;6.63;;
10094;SDS011;5086;50.830;7.102;2023-06-22T02:39:27;10.40;;;6.90;;
10094;SDS011;5086;50.830;7.102;2023-06-22T02:41:54;7.77;;;5.90;;
10094;SDS011;5086;50.830;7.102;2023-06-22T02:44:21;8.60;;;5.80;;
10094;SDS011;5086;50.830;7.102;2023-06-22T02:46:48;10.13;;;6.83;;
10094;SDS011;5086;50.830;7.102;2023-06-22T02:49:15;11.30;;;6.93;;
10094;SDS011;5086;50.830;7.102;2023-06-22T02:51:44;11.23;;;7.30;;
10094;SDS011;5086;50.830;7.102;2023-06-22T02:54:13;12.60;;;7.30;;
10094;SDS011;5086;50.830;7.102;2023-06-22T02:56:40;9.50;;;6.90;;
10094;SDS011;5086;50.830;7.102;2023-06-22T02:59:08;13.67;;;7.10;;
10094;SDS011;5086;50.830;7.102;2023-06-22T03:01:35;9.40;;;6.90;;
10094;SDS011;5086;50.830;7.102;2023-06-22T03:04:05;9.70;;;6.63;;
10094;SDS011;5086;50.830;7.102;2023-06-22T03:06:32;7.70;;;5.77;;
10094;SDS011;5086;50.830;7.102;2023-06-22T03:08:59;11.67;;;6.33;;
10094;SDS011;5086;50.830;7.102;2023-06-22T03:11:30;10.43;;;6.80;;
10094;SDS011;5086;50.830;7.102;2023-06-22T03:13:57;11.50;;;6.40;;
10094;SDS011;5086;50.830;7.102;2023-06-22T03:16:23;10.73;;;6.60;;
10094;SDS011;5086;50.830;7.102;2023-06-22T03:18:50;10.60;;;7.07;;
10094;SDS011;5086;50.830;7.102;2023-06-22T03:21:18;10.17;;;6.80;;
10094;SDS011;5086;50.830;7.102;2023-06-22T03:23:45;12.10;;;7.67;;
10094;SDS011;5086;50.830;7.102;2023-06-22T03:26:12;10.83;;;6.70;;
10094;SDS011;5086;50.830;7.102;2023-06-22T03:35:39;10.73;;;7.00;;
10094;SDS011;5086;50.830;7.102;2023-06-22T03:38:05;11.07;;;6.87;;
10094;SDS011;5086;50.830;7.102;2023-06-22T03:40:32;10.10;;;6.80;;
10094;SDS011;5086;50.830;7.102;2023-06-22T03:42:59;13.30;;;7.87;;
10094;SDS011;5086;50.830;7.102;2023-06-22T03:45:26;12.33;;;8.00;;
10094;SDS011;5086;50.830;7.102;2023-06-22T03:47:52;12.80;;;7.77;;
10094;SDS011;5086;50.830;7.102;2023-06-22T03:50:19;15.60;;;7.13;;
10094;SDS011;5086;50.830;7.102;2023-06-22T03:52:47;12.50;;;7.60;;
10094;SDS011;5086;50.830;7.102;2023-06-22T03:55:16;12.77;;;7.03;;
10094;SDS011;5086;50.830;7.102;2023-06-22T03:57:43;10.50;;;7.40;;
10094;SDS011;5086;50.830;7.102;2023-06-22T04:00:10;11.97;;;7.17;;
10094;SDS011;5086;50.830;7.102;2023-06-22T04:02:38;10.87;;;7.27;;
10094;SDS011;5086;50.830;7.102;2023-06-22T04:05:05;12.70;;;7.90;;
10094;SDS011;5086;50.830;7.102;2023-06-22T04:07:32;12.70;;;7.10;;
10094;SDS011;5086;50.830;7.102;2023-06-22T04:10:00;11.23;;;6.77;;
10094;SDS011;5086;50.830;7.102;2023-06-22T04:12:27;12.67;;;7.90;;
10094;SDS011;5086;50.830;7.102;2023-06-22T04:14:54;13.10;;;7.80;;
10094;SDS011;5086;50.830;7.102;2023-06-22T04:17:20;16.50;;;8.17;;
10094;SDS011;5086;50.830;7.102;2023-06-22T04:19:49;14.00;;;8.07;;
10094;SDS011;5086;50.830;7.102;2023-06-22T04:22:16;16.93;;;8.30;;
10094;SDS011;5086;50.830;7.102;2023-06-22T04:24:43;12.93;;;8.17;;
10094;SDS011;5086;50.830;7.102;2023-06-22T04:27:11;13.73;;;7.87;;
10094;SDS011;5086;50.830;7.102;2023-06-22T04:29:38;11.87;;;7.70;;
10094;SDS011;5086;50.830;7.102;2023-06-22T04:32:13;11.73;;;7.90;;
10094;SDS011;5086;50.830;7.102;2023-06-22T04:34:40;13.30;;;7.80;;
10094;SDS011;5086;50.830;7.102;2023-06-22T04:37:07;12.37;;;7.73;;
10094;SDS011;5086;50.830;7.102;2023-06-22T04:39:34;14.30;;;7.83;;
10094;SDS011;5086;50.830;7.102;2023-06-22T04:42:02;24.50;;;8.47;;
10094;SDS011;5086;50.830;7.102;2023-06-22T04:44:30;14.00;;;7.70;;
10094;SDS011;5086;50.830;7.102;2023-06-22T04:46:57;12.07;;;8.10;;
10094;SDS011;5086;50.830;7.102;2023-06-22T04:49:27;14.10;;;8.07;;
10094;SDS011;5086;50.830;7.102;2023-06-22T04:51:57;13.17;;;7.97;;
10094;SDS011;5086;50.830;7.102;2023-06-22T04:54:24;12.70;;;7.30;;
10094;SDS011;5086;50.830;7.102;2023-06-22T04:56:51;14.93;;;8.00;;
10094;SDS011;5086;50.830;7.102;2023-06-22T04:59:21;13.03;;;7.57;;
10094;SDS011;5086;50.830;7.102;2023-06-22T05:01:55;11.07;;;7.40;;
10094;SDS011;5086;50.830;7.102;2023-06-22T05:04:23;12.80;;;7.43;;
10094;SDS011;5086;50.830;7.102;2023-06-22T05:06:50;12.70;;;7.10;;
10094;SDS011;5086;50.830;7.102;2023-06-22T05:09:18;12.10;;;7.20;;
10094;SDS011;5086;50.830;7.102;2023-06-22T05:11:45;12.63;;;7.77;;
10094;SDS011;5086;50.830;7.102;2023-06-22T05:14:12;15.00;;;7.50;;
10094;SDS011;5086;50.830;7.102;2023-06-22T05:16:40;9.80;;;7.00;;
10094;SDS011;5086;50.830;7.102;2023-06-22T05:19:09;16.70;;;7.93;;
10094;SDS011;5086;50.830;7.102;2023-06-22T05:21:36;15.97;;;7.43;;
10094;SDS011;5086;50.830;7.102;2023-06-22T05:24:03;10.50;;;7.10;;
10094;SDS011;5086;50.830;7.102;2023-06-22T05:26:30;10.27;;;7.03;;
10094;SDS011;5086;50.830;7.102;2023-06-22T05:28:58;9.87;;;6.53;;
10094;SDS011;5086;50.830;7.102;2023-06-22T05:31:25;15.23;;;5.80;;
10094;SDS011;5086;50.830;7.102;2023-06-22T05:33:53;10.33;;;6.57;;
10094;SDS011;5086;50.830;7.102;2023-06-22T05:36:22;10.93;;;6.27;;
10094;SDS011;5086;50.830;7.102;2023-06-22T05:38:50;11.63;;;6.33;;
10094;SDS011;5086;50.830;7.102;2023-06-22T05:41:17;12.13;;;6.33;;
10094;SDS011;5086;50.830;7.102;2023-06-22T05:43:44;9.20;;;5.43;;
10094;SDS011;5086;50.830;7.102;2023-06-22T05:46:11;12.13;;;5.83;;
10094;SDS011;5086;50.830;7.102;2023-06-22T05:48:38;13.63;;;6.60;;
10094;SDS011;5086;50.830;7.102;2023-06-22T05:51:04;16.63;;;6.37;;
10094;SDS011;5086;50.830;7.102;2023-06-22T05:53:32;7.90;;;5.73;;
10094;SDS011;5086;50.830;7.102;2023-06-22T05:55:59;10.27;;;6.47;;
10094;SDS011;5086;50.830;7.102;2023-06-22T05:58:26;8.87;;;5.87;;
10094;SDS011;5086;50.830;7.102;2023-06-22T06:00:53;14.17;;;6.20;;
10094;SDS011;5086;50.830;7.102;2023-06-22T06:03:20;8.97;;;6.00;;
10094;SDS011;5086;50.830;7.102;2023-06-22T06:05:47;21.53;;;6.87;;
10094;SDS011;5086;50.830;7.102;2023-06-22T06:08:14;15.63;;;6.23;;
10094;SDS011;5086;50.830;7.102;2023-06-22T06:10:42;11.50;;;6.60;;
10094;SDS011;5086;50.830;7.102;2023-06-22T06:13:09;10.23;;;6.30;;
10094;SDS011;5086;50.830;7.102;2023-06-22T06:15:37;9.83;;;5.67;;
10094;SDS011;5086;50.830;7.102;2023-06-22T06:18:04;10.43;;;6.13;;
10094;SDS011;5086;50.830;7.102;2023-06-22T06:20:32;9.63;;;6.70;;
10094;SDS011;5086;50.830;7.102;2023-06-22T06:22:59;10.57;;;6.20;;
10094;SDS011;5086;50.830;7.102;2023-06-22T06:25:25;12.93;;;6.50;;
10094;SDS011;5086;50.830;7.102;2023-06-22T06:27:53;11.37;;;6.20;;
10094;SDS011;5086;50.830;7.102;2023-06-22T06:30:21;13.60;;;7.20;;
10094;SDS011;5086;50.830;7.102;2023-06-22T06:33:01;11.27;;;6.37;;
10094;SDS011;5086;50.830;7.102;2023-06-22T06:35:29;12.30;;;6.87;;
10094;SDS011;5086;50.830;7.102;2023-06-22T06:37:56;10.20;;;6.40;;
10094;SDS011;5086;50.830;7.102;2023-06-22T06:40:23;8.87;;;5.80;;
10094;SDS011;5086;50.830;7.102;2023-06-22T06:42:50;9.07;;;6.53;;
10094;SDS011;5086;50.830;7.102;2023-06-22T06:45:19;11.33;;;6.63;;
10094;SDS011;5086;50.830;7.102;2023-06-22T06:47:48;12.30;;;6.40;;
10094;SDS011;5086;50.830;7.102;2023-06-22T06:50:15;9.87;;;6.30;;
10094;SDS011;5086;50.830;7.102;2023-06-22T06:52:43;9.23;;;6.47;;
10094;SDS011;5086;50.830;7.102;2023-06-22T06:55:10;13.77;;;8.03;;
10094;SDS011;5086;50.830;7.102;2023-06-22T06:57:39;12.20;;;6.63;;
10094;SDS011;5086;50.830;7.102;2023-06-22T07:00:07;12.43;;;6.97;;
10094;SDS011;5086;50.830;7.102;2023-06-22T07:02:38;11.20;;;6.17;;
10094;SDS011;5086;50.830;7.102;2023-06-22T07:05:06;10.17;;;6.90;;
10094;SDS011;5086;50.830;7.102;2023-06-22T07:07:34;9.40;;;6.10;;
10094;SDS011;5086;50.830;7.102;2023-06-22T07:10:01;10.33;;;6.10;;
10094;SDS011;5086;50.830;7.102;2023-06-22T07:12:28;12.00;;;6.93;;
10094;SDS011;5086;50.830;7.102;2023-06-22T07:14:57;9.80;;;6.90;;
10094;SDS011;5086;50.830;7.102;2023-06-22T07:17:28;8.33;;;6.40;;
10094;SDS011;5086;50.830;7.102;2023-06-22T07:19:56;7.57;;;5.50;;
10094;SDS011;5086;50.830;7.102;2023-06-22T07:22:23;9.90;;;5.80;;
10094;SDS011;5086;50.830;7.102;2023-06-22T07:24:50;11.07;;;5.97;;
10094;SDS011;5086;50.830;7.102;2023-06-22T07:27:17;8.63;;;5.73;;
10094;SDS011;5086;50.830;7.102;2023-06-22T07:29:44;11.30;;;5.90;;
10094;SDS011;5086;50.830;7.102;2023-06-22T07:32:11;10.83;;;6.80;;
10094;SDS011;5086;50.830;7.102;2023-06-22T07:34:38;8.23;;;6.10;;
10094;SDS011;5086;50.830;7.102;2023-06-22T07:37:07;10.20;;;5.93;;
10094;SDS011;5086;50.830;7.102;2023-06-22T07:39:34;12.17;;;7.30;;
10094;SDS011;5086;50.830;7.102;2023-06-22T07:42:02;10.87;;;5.70;;
10094;SDS011;5086;50.830;7.102;2023-06-22T07:44:30;8.50;;;5.80;;
10094;SDS011;5086;50.830;7.102;2023-06-22T07:46:57;8.80;;;6.23;;
10094;SDS011;5086;50.830;7.102;2023-06-22T07:49:23;10.03;;;6.57;;
10094;SDS011;5086;50.830;7.102;2023-06-22T07:51:52;12.57;;;6.40;;
10094;SDS011;5086;50.830;7.102;2023-06-22T07:54:28;9.87;;;6.10;;
10094;SDS011;5086;50.830;7.102;2023-06-22T07:56:55;8.80;;;5.73;;
10094;SDS011;5086;50.830;7.102;2023-06-22T07:59:22;8.33;;;6.10;;
10094;SDS011;5086;50.830;7.102;2023-06-22T08:01:49;9.60;;;6.47;;
10094;SDS011;5086;50.830;7.102;2023-06-22T08:04:16;7.93;;;5.90;;
10094;SDS011;5086;50.830;7.102;2023-06-22T08:06:43;21.50;;;8.00;;
10094;SDS011;5086;50.830;7.102;2023-06-22T08:09:10;6.77;;;5.93;;
10094;SDS011;5086;50.830;7.102;2023-06-22T08:11:38;8.40;;;5.73;;
10094;SDS011;5086;50.830;7.102;2023-06-22T08:14:05;6.40;;;5.20;;
10094;SDS011;5086;50.830;7.102;2023-06-22T08:16:32;6.33;;;5.53;;
10094;SDS011;5086;50.830;7.102;2023-06-22T08:18:59;6.80;;;5.77;;
10094;SDS011;5086;50.830;7.102;2023-06-22T08:21:28;7.93;;;5.33;;
10094;SDS011;5086;50.830;7.102;2023-06-22T08:23:54;6.30;;;5.57;;
10094;SDS011;5086;50.830;7.102;2023-06-22T08:26:21;7.80;;;6.30;;
10094;SDS011;5086;50.830;7.102;2023-06-22T08:28:50;9.23;;;6.50;;
10094;SDS011;5086;50.830;7.102;2023-06-22T08:31:17;8.87;;;6.60;;
10094;SDS011;5086;50.830;7.102;2023-06-22T08:33:44;9.60;;;5.83;;
10094;SDS011;5086;50.830;7.102;2023-06-22T08:36:11;7.17;;;5.47;;
10094;SDS011;5086;50.830;7.102;2023-06-22T08:38:39;8.20;;;6.30;;
10094;SDS011;5086;50.830;7.102;2023-06-22T08:41:06;9.63;;;6.43;;
10094;SDS011;5086;50.830;7.102;2023-06-22T08:43:33;7.40;;;6.10;;
10094;SDS011;5086;50.830;7.102;2023-06-22T08:46:01;11.43;;;6.63;;
10094;SDS011;5086;50.830;7.102;2023-06-22T08:48:28;10.10;;;6.90;;
10094;SDS011;5086;50.830;7.102;2023-06-22T08:50:55;12.07;;;7.30;;
10094;SDS011;5086;50.830;7.102;2023-06-22T08:53:25;11.30;;;6.70;;
10094;SDS011;5086;50.830;7.102;2023-06-22T08:55:51;11.53;;;6.60;;
10094;SDS011;5086;50.830;7.102;2023-06-22T08:58:18;12.10;;;7.63;;
10094;SDS011;5086;50.830;7.102;2023-06-22T09:00:46;9.87;;;6.67;;
10094;SDS011;5086;50.830;7.102;2023-06-22T09:03:15;11.60;;;7.13;;
10094;SDS011;5086;50.830;7.102;2023-06-22T09:05:42;9.50;;;6.43;;
10094;SDS011;5086;50.830;7.102;2023-06-22T09:08:10;9.13;;;6.17;;
10094;SDS011;5086;50.830;7.102;2023-06-22T09:10:37;11.13;;;7.67;;
10094;SDS011;5086;50.830;7.102;2023-06-22T09:13:04;9.97;;;6.53;;
10094;SDS011;5086;50.830;7.102;2023-06-22T09:15:31;7.80;;;6.03;;
10094;SDS011;5086;50.830;7.102;2023-06-22T09:17:59;12.70;;;6.90;;
10094;SDS011;5086;50.830;7.102;2023-06-22T09:20:27;9.70;;;6.57;;
10094;SDS011;5086;50.830;7.102;2023-06-22T09:22:54;9.20;;;6.13;;
10094;SDS011;5086;50.830;7.102;2023-06-22T09:25:21;9.43;;;5.87;;
10094;SDS011;5086;50.830;7.102;2023-06-22T09:27:48;9.47;;;6.60;;
10094;SDS011;5086;50.830;7.102;2023-06-22T09:30:15;8.90;;;6.40;;
10094;SDS011;5086;50.830;7.102;2023-06-22T09:32:42;12.90;;;7.20;;
10094;SDS011;5086;50.830;7.102;2023-06-22T09:35:09;9.63;;;6.40;;
10094;SDS011;5086;50.830;7.102;2023-06-22T09:37:40;8.40;;;6.13;;
10094;SDS011;5086;50.830;7.102;2023-06-22T09:40:08;11.33;;;7.50;;
10094;SDS011;5086;50.830;7.102;2023-06-22T09:42:38;9.63;;;6.50;;
10094;SDS011;5086;50.830;7.102;2023-06-22T09:45:05;9.00;;;6.30;;
10094;SDS011;5086;50.830;7.102;2023-06-22T09:47:33;9.27;;;6.47;;
10094;SDS011;5086;50.830;7.102;2023-06-22T09:50:00;9.70;;;6.73;;
10094;SDS011;5086;50.830;7.102;2023-06-22T09:52:27;8.43;;;6.37;;
10094;SDS011;5086;50.830;7.102;2023-06-22T09:54:57;9.47;;;6.80;;
10094;SDS011;5086;50.830;7.102;2023-06-22T09:57:24;8.70;;;6.43;;
10094;SDS011;5086;50.830;7.102;2023-06-22T09:59:52;7.80;;;6.00;;
10094;SDS011;5086;50.830;7.102;2023-06-22T10:02:26;8.33;;;5.70;;
10094;SDS011;5086;50.830;7.102;2023-06-22T10:04:55;11.23;;;6.70;;
10094;SDS011;5086;50.830;7.102;2023-06-22T10:07:22;9.00;;;6.53;;
10094;SDS011;5086;50.830;7.102;2023-06-22T10:09:49;7.83;;;6.10;;
10094;SDS011;5086;50.830;7.102;2023-06-22T10:12:17;10.93;;;6.30;;
10094;SDS011;5086;50.830;7.102;2023-06-22T10:14:44;10.27;;;6.67;;
10094;SDS011;5086;50.830;7.102;2023-06-22T10:17:11;10.17;;;6.70;;
10094;SDS011;5086;50.830;7.102;2023-06-22T10:19:38;11.30;;;7.20;;
10094;SDS011;5086;50.830;7.102;2023-06-22T10:22:06;10.00;;;6.40;;
10094;SDS011;5086;50.830;7.102;2023-06-22T10:24:33;12.50;;;7.97;;
10094;SDS011;5086;50.830;7.102;2023-06-22T10:27:00;10.17;;;6.80;;
10094;SDS011;5086;50.830;7.102;2023-06-22T10:29:29;10.20;;;6.60;;
10094;SDS011;5086;50.830;7.102;2023-06-22T10:31:55;10.57;;;6.87;;
10094;SDS011;5086;50.830;7.102;2023-06-22T10:34:22;10.50;;;7.53;;
10094;SDS011;5086;50.830;7.102;2023-06-22T10:36:49;11.97;;;7.47;;
10094;SDS011;5086;50.830;7.102;2023-06-22T10:39:16;13.27;;;8.10;;
10094;SDS011;5086;50.830;7.102;2023-06-22T10:41:43;10.70;;;7.30;;
10094;SDS011;5086;50.830;7.102;2023-06-22T10:44:10;13.13;;;8.20;;
10094;SDS011;5086;50.830;7.102;2023-06-22T10:46:38;14.40;;;7.80;;
10094;SDS011;5086;50.830;7.102;2023-06-22T10:49:05;13.40;;;8.60;;
10094;SDS011;5086;50.830;7.102;2023-06-22T10:51:32;14.20;;;8.53;;
10094;SDS011;5086;50.830;7.102;2023-06-22T10:53:59;14.73;;;8.63;;
10094;SDS011;5086;50.830;7.102;2023-06-22T10:56:26;21.10;;;10.20;;
10094;SDS011;5086;50.830;7.102;2023-06-22T10:58:53;17.67;;;10.00;;
10094;SDS011;5086;50.830;7.102;2023-06-22T11:01:20;16.77;;;10.00;;
10094;SDS011;5086;50.830;7.102;2023-06-22T11:03:49;16.23;;;9.70;;
10094;SDS011;5086;50.830;7.102;2023-06-22T11:06:25;16.87;;;9.93;;
10094;SDS011;5086;50.830;7.102;2023-06-22T11:08:56;23.67;;;10.23;;
10094;SDS011;5086;50.830;7.102;2023-06-22T11:11:25;32.57;;;12.30;;
10094;SDS011;5086;50.830;7.102;2023-06-22T11:13:52;22.00;;;11.10;;
10094;SDS011;5086;50.830;7.102;2023-06-22T11:16:19;20.40;;;10.20;;
10094;SDS011;5086;50.830;7.102;2023-06-22T11:19:23;24.10;;;10.17;;
10094;SDS011;5086;50.830;7.102;2023-06-22T11:22:04;21.23;;;10.90;;
10094;SDS011;5086;50.830;7.102;2023-06-22T11:24:32;16.13;;;10.50;;
10094;SDS011;5086;50.830;7.102;2023-06-22T11:27:29;19.20;;;9.73;;
10094;SDS011;5086;50.830;7.102;2023-06-22T11:30:22;21.87;;;10.43;;
10094;SDS011;5086;50.830;7.102;2023-06-22T11:42:46;17.20;;;9.97;;
10094;SDS011;5086;50.830;7.102;2023-06-22T11:45:13;17.40;;;10.07;;
10094;SDS011;5086;50.830;7.102;2023-06-22T11:47:42;18.30;;;10.03;;
10094;SDS011;5086;50.830;7.102;2023-06-22T11:50:09;16.23;;;10.03;;
10094;SDS011;5086;50.830;7.102;2023-06-22T11:52:36;17.63;;;10.37;;
10094;SDS011;5086;50.830;7.102;2023-06-22T11:55:04;16.10;;;9.43;;
10094;SDS011;5086;50.830;7.102;2023-06-22T11:57:32;17.50;;;10.40;;
10094;SDS011;5086;50.830;7.102;2023-06-22T12:00:01;15.00;;;9.33;;
10094;SDS011;5086;50.830;7.102;2023-06-22T12:02:35;15.53;;;9.67;;
10094;SDS011;5086;50.830;7.102;2023-06-22T12:05:02;14.37;;;8.93;;
10094;SDS011;5086;50.830;7.102;2023-06-22T12:07:30;15.90;;;9.60;;
10094;SDS011;5086;50.830;7.102;2023-06-22T12:09:57;13.93;;;9.83;;
10094;SDS011;5086;50.830;7.102;2023-06-22T12:12:24;14.03;;;9.40;;
10094;SDS011;5086;50.830;7.102;2023-06-22T12:14:50;15.40;;;9.80;;
10094;SDS011;5086;50.830;7.102;2023-06-22T12:17:19;15.10;;;9.60;;
10094;SDS011;5086;50.830;7.102;2023-06-22T12:19:46;14.70;;;9.00;;
10094;SDS011;5086;50.830;7.102;2023-06-22T12:22:12;16.00;;;9.60;;
10094;SDS011;5086;50.830;7.102;2023-06-22T12:24:39;15.67;;;9.80;;
10094;SDS011;5086;50.830;7.102;2023-06-22T12:27:06;16.90;;;10.10;;
10094;SDS011;5086;50.830;7.102;2023-06-22T12:29:33;12.60;;;8.73;;
10094;SDS011;5086;50.830;7.102;2023-06-22T12:32:00;14.10;;;8.27;;
10094;SDS011;5086;50.830;7.102;2023-06-22T12:34:29;15.90;;;9.60;;
10094;SDS011;5086;50.830;7.102;2023-06-22T12:36:55;17.80;;;9.47;;
10094;SDS011;5086;50.830;7.102;2023-06-22T12:39:22;24.47;;;9.90;;
10094;SDS011;5086;50.830;7.102;2023-06-22T12:41:53;12.57;;;8.13;;
10094;SDS011;5086;50.830;7.102;2023-06-22T12:44:20;13.40;;;8.40;;
10094;SDS011;5086;50.830;7.102;2023-06-22T12:46:47;12.53;;;7.73;;
10094;SDS011;5086;50.830;7.102;2023-06-22T12:49:14;12.20;;;7.70;;
10094;SDS011;5086;50.830;7.102;2023-06-22T12:51:47;10.77;;;6.97;;
10094;SDS011;5086;50.830;7.102;2023-06-22T12:54:14;12.70;;;7.17;;
10094;SDS011;5086;50.830;7.102;2023-06-22T12:56:41;10.80;;;6.73;;
10094;SDS011;5086;50.830;7.102;2023-06-22T12:59:08;12.90;;;7.77;;
10094;SDS011;5086;50.830;7.102;2023-06-22T13:01:35;10.07;;;7.07;;
10094;SDS011;5086;50.830;7.102;2023-06-22T13:04:02;10.80;;;7.50;;
10094;SDS011;5086;50.830;7.102;2023-06-22T13:06:30;11.70;;;7.40;;
10094;SDS011;5086;50.830;7.102;2023-06-22T13:08:58;10.93;;;7.27;;
10094;SDS011;5086;50.830;7.102;2023-06-22T13:11:25;8.73;;;6.13;;
10094;SDS011;5086;50.830;7.102;2023-06-22T13:13:53;11.80;;;6.20;;
10094;SDS011;5086;50.830;7.102;2023-06-22T13:16:20;10.50;;;6.53;;
10094;SDS011;5086;50.830;7.102;2023-06-22T13:18:47;9.90;;;5.80;;
10094;SDS011;5086;50.830;7.102;2023-06-22T13:21:17;8.30;;;5.40;;
10094;SDS011;5086;50.830;7.102;2023-06-22T13:23:44;7.03;;;5.10;;
10094;SDS011;5086;50.830;7.102;2023-06-22T13:26:12;10.43;;;5.40;;
10094;SDS011;5086;50.830;7.102;2023-06-22T13:28:41;9.13;;;5.33;;
10094;SDS011;5086;50.830;7.102;2023-06-22T13:31:08;7.97;;;5.43;;
10094;SDS011;5086;50.830;7.102;2023-06-22T13:33:37;8.90;;;6.03;;
10094;SDS011;5086;50.830;7.102;2023-06-22T13:36:05;8.47;;;5.90;;
10094;SDS011;5086;50.830;7.102;2023-06-22T13:38:32;8.47;;;6.10;;
10094;SDS011;5086;50.830;7.102;2023-06-22T13:41:03;8.33;;;5.97;;
10094;SDS011;5086;50.830;7.102;2023-06-22T13:43:31;10.77;;;6.70;;
10094;SDS011;5086;50.830;7.102;2023-06-22T13:45:58;8.23;;;5.43;;
10094;SDS011;5086;50.830;7.102;2023-06-22T13:48:25;10.63;;;6.30;;
10094;SDS011;5086;50.830;7.102;2023-06-22T13:50:53;8.67;;;5.90;;
10094;SDS011;5086;50.830;7.102;2023-06-22T13:53:20;7.30;;;5.23;;
10094;SDS011;5086;50.830;7.102;2023-06-22T13:55:47;7.47;;;5.40;;
10094;SDS011;5086;50.830;7.102;2023-06-22T13:58:18;8.73;;;5.20;;
10094;SDS011;5086;50.830;7.102;2023-06-22T14:00:47;8.50;;;5.40;;
10094;SDS011;5086;50.830;7.102;2023-06-22T14:03:14;8.97;;;5.33;;
10094;SDS011;5086;50.830;7.102;2023-06-22T14:05:42;8.90;;;5.50;;
10094;SDS011;5086;50.830;7.102;2023-06-22T14:08:09;10.20;;;5.90;;
10094;SDS011;5086;50.830;7.102;2023-06-22T14:10:36;12.33;;;6.83;;
10094;SDS011;5086;50.830;7.102;2023-06-22T14:13:03;12.00;;;7.20;;
10094;SDS011;5086;50.830;7.102;2023-06-22T14:15:32;19.53;;;7.63;;
10094;SDS011;5086;50.830;7.102;2023-06-22T14:18:18;11.37;;;7.43;;
10094;SDS011;5086;50.830;7.102;2023-06-22T14:20:56;13.40;;;8.40;;
10094;SDS011;5086;50.830;7.102;2023-06-22T14:23:37;10.10;;;6.97;;
10094;SDS011;5086;50.830;7.102;2023-06-22T14:26:04;10.87;;;7.27;;
10094;SDS011;5086;50.830;7.102;2023-06-22T14:28:46;13.30;;;7.37;;
10094;SDS011;5086;50.830;7.102;2023-06-22T14:43:08;16.70;;;7.50;;
10094;SDS011;5086;50.830;7.102;2023-06-22T14:45:53;16.97;;;7.53;;
10094;SDS011;5086;50.830;7.102;2023-06-22T14:48:20;15.37;;;8.80;;
10094;SDS011;5086;50.830;7.102;2023-06-22T14:50:48;17.23;;;8.13;;
10094;SDS011;5086;50.830;7.102;2023-06-22T14:53:17;17.73;;;10.17;;
10094;SDS011;5086;50.830;7.102;2023-06-22T14:55:44;17.93;;;9.60;;
10094;SDS011;5086;50.830;7.102;2023-06-22T14:58:13;20.70;;;9.20;;
10094;SDS011;5086;50.830;7.102;2023-06-22T15:03:52;16.50;;;9.90;;
10094;SDS011;5086;50.830;7.102;2023-06-22T15:06:19;23.10;;;9.47;;
10094;SDS011;5086;50.830;7.102;2023-06-22T15:08:55;20.00;;;9.70;;
10094;SDS011;5086;50.830;7.102;2023-06-22T15:11:22;17.40;;;9.50;;
10094;SDS011;5086;50.830;7.102;2023-06-22T15:13:50;23.33;;;11.63;;
10094;SDS011;5086;50.830;7.102;2023-06-22T15:16:19;17.70;;;9.07;;
10094;SDS011;5086;50.830;7.102;2023-06-22T15:18:46;12.80;;;7.40;;
10094;SDS011;5086;50.830;7.102;2023-06-22T15:21:14;15.57;;;8.10;;
10094;SDS011;5086;50.830;7.102;2023-06-22T15:23:42;15.03;;;8.80;;
10094;SDS011;5086;50.830;7.102;2023-06-22T15:26:11;16.10;;;8.20;;
10094;SDS011;5086;50.830;7.102;2023-06-22T15:28:39;16.50;;;8.03;;
10094;SDS011;5086;50.830;7.102;2023-06-22T15:31:06;11.80;;;6.83;;